sensor_id;sensor_type;location;lat;lon;timestamp;pressure;altitude;pressure_sealevel;temperature;humidity
43488;BME280;29078;41.932;25.554;2023-12-07T00:01:45;99253.06;;;7.32;75.78
43488;BME280;29078;41.932;25.554;2023-12-07T00:04:10;99257.19;;;7.35;75.56
43488;BME280;29078;41.932;25.554;2023-12-07T00:06:35;99250.44;;;7.32;75.57
43488;BME280;29078;41.932;25.554;2023-12-07T00:09:01;99257.50;;;7.32;75.85
43488;BME280;29078;41.932;25.554;2023-12-07T00:11:26;99256.84;;;7.30;75.34
43488;BME280;29078;41.932;25.554;2023-12-07T00:13:51;99257.69;;;7.30;75.67
43488;BME280;29078;41.932;25.554;2023-12-07T00:16:17;99252.09;;;7.25;75.50
43488;BME280;29078;41.932;25.554;2023-12-07T00:18:42;99250.44;;;7.24;75.92
43488;BME280;29078;41.932;25.554;2023-12-07T00:21:08;99259.31;;;7.23;76.03
43488;BME280;29078;41.932;25.554;2023-12-07T00:23:34;99258.81;;;7.20;75.43
43488;BME280;29078;41.932;25.554;2023-12-07T00:25:59;99255.88;;;7.15;75.43
43488;BME280;29078;41.932;25.554;2023-12-07T00:28:24;99255.22;;;7.13;75.97
43488;BME280;29078;41.932;25.554;2023-12-07T00:30:50;99262.75;;;7.16;75.42
43488;BME280;29078;41.932;25.554;2023-12-07T00:33:15;99259.31;;;7.15;75.52
43488;BME280;29078;41.932;25.554;2023-12-07T00:35:42;99262.75;;;7.16;75.44
43488;BME280;29078;41.932;25.554;2023-12-07T00:38:07;99252.09;;;7.17;75.77
43488;BME280;29078;41.932;25.554;2023-12-07T00:40:33;99258.97;;;7.18;75.62
43488;BME280;29078;41.932;25.554;2023-12-07T00:43:01;99261.78;;;7.17;75.05
43488;BME280;29078;41.932;25.554;2023-12-07T00:45:27;99268.16;;;7.14;75.04
43488;BME280;29078;41.932;25.554;2023-12-07T00:47:52;99265.72;;;7.13;75.39
43488;BME280;29078;41.932;25.554;2023-12-07T00:50:17;99262.44;;;7.11;75.18
43488;BME280;29078;41.932;25.554;2023-12-07T00:52:43;99274.56;;;7.12;75.55
43488;BME280;29078;41.932;25.554;2023-12-07T00:55:08;99272.25;;;7.09;75.92
43488;BME280;29078;41.932;25.554;2023-12-07T00:57:33;99272.25;;;7.09;75.63
43488;BME280;29078;41.932;25.554;2023-12-07T00:59:59;99275.22;;;7.06;75.84
43488;BME280;29078;41.932;25.554;2023-12-07T01:02:24;99275.22;;;7.06;75.48
43488;BME280;29078;41.932;25.554;2023-12-07T01:04:49;99275.06;;;7.07;75.62
43488;BME280;29078;41.932;25.554;2023-12-07T01:07:15;99267.00;;;7.09;75.22
43488;BME280;29078;41.932;25.554;2023-12-07T01:09:40;99272.44;;;7.07;75.52
43488;BME280;29078;41.932;25.554;2023-12-07T01:12:05;99272.25;;;7.09;75.44
43488;BME280;29078;41.932;25.554;2023-12-07T01:14:31;99265.06;;;7.11;75.52
43488;BME280;29078;41.932;25.554;2023-12-07T01:16:56;99261.75;;;7.09;74.94
43488;BME280;29078;41.932;25.554;2023-12-07T01:19:21;99260.94;;;7.08;75.29
43488;BME280;29078;41.932;25.554;2023-12-07T01:21:47;99255.84;;;7.07;75.26
43488;BME280;29078;41.932;25.554;2023-12-07T01:24:12;99257.00;;;7.04;74.79
43488;BME280;29078;41.932;25.554;2023-12-07T01:26:37;99254.53;;;7.03;74.98
43488;BME280;29078;41.932;25.554;2023-12-07T01:29:03;99252.25;;;6.99;74.84
43488;BME280;29078;41.932;25.554;2023-12-07T01:31:28;99248.13;;;6.97;75.03
43488;BME280;29078;41.932;25.554;2023-12-07T01:33:54;99248.47;;;6.94;75.54
43488;BME280;29078;41.932;25.554;2023-12-07T01:36:19;99248.94;;;6.89;74.88
43488;BME280;29078;41.932;25.554;2023-12-07T01:38:45;99243.03;;;6.87;75.00
43488;BME280;29078;41.932;25.554;2023-12-07T01:41:10;99233.84;;;6.83;75.40
43488;BME280;29078;41.932;25.554;2023-12-07T01:43:36;99239.59;;;6.79;74.84
43488;BME280;29078;41.932;25.554;2023-12-07T01:46:01;99241.03;;;6.73;75.22
43488;BME280;29078;41.932;25.554;2023-12-07T01:48:27;99232.81;;;6.68;74.90
43488;BME280;29078;41.932;25.554;2023-12-07T01:50:54;99241.00;;;6.65;75.63
43488;BME280;29078;41.932;25.554;2023-12-07T01:53:21;99241.16;;;6.63;75.83
43488;BME280;29078;41.932;25.554;2023-12-07T01:55:46;99246.72;;;6.60;75.52
43488;BME280;29078;41.932;25.554;2023-12-07T01:58:12;99246.06;;;6.58;75.47
43488;BME280;29078;41.932;25.554;2023-12-07T02:00:37;99242.31;;;6.61;75.72
43488;BME280;29078;41.932;25.554;2023-12-07T02:03:04;99239.69;;;6.61;75.57
43488;BME280;29078;41.932;25.554;2023-12-07T02:05:29;99235.41;;;6.60;75.56
43488;BME280;29078;41.932;25.554;2023-12-07T02:07:56;99235.41;;;6.60;75.36
43488;BME280;29078;41.932;25.554;2023-12-07T02:10:21;99238.19;;;6.58;74.92
43488;BME280;29078;41.932;25.554;2023-12-07T02:12:47;99248.00;;;6.48;74.49
43488;BME280;29078;41.932;25.554;2023-12-07T02:15:12;99240.09;;;6.40;75.29
43488;BME280;29078;41.932;25.554;2023-12-07T02:17:58;99246.00;;;6.42;75.59
43488;BME280;29078;41.932;25.554;2023-12-07T02:20:32;99248.47;;;6.44;75.25
43488;BME280;29078;41.932;25.554;2023-12-07T02:23:03;99251.41;;;6.41;74.53
43488;BME280;29078;41.932;25.554;2023-12-07T02:25:31;99256.81;;;6.39;74.71
43488;BME280;29078;41.932;25.554;2023-12-07T02:27:57;99251.72;;;6.37;74.58
43488;BME280;29078;41.932;25.554;2023-12-07T02:30:22;99255.03;;;6.40;75.16
43488;BME280;29078;41.932;25.554;2023-12-07T02:32:48;99251.56;;;6.39;74.58
43488;BME280;29078;41.932;25.554;2023-12-07T02:35:13;99250.91;;;6.37;74.96
43488;BME280;29078;41.932;25.554;2023-12-07T02:37:49;99242.38;;;6.35;74.63
43488;BME280;29078;41.932;25.554;2023-12-07T02:40:16;99253.19;;;6.32;74.39
43488;BME280;29078;41.932;25.554;2023-12-07T02:42:42;99248.91;;;6.31;74.72
43488;BME280;29078;41.932;25.554;2023-12-07T02:45:08;99251.03;;;6.27;74.76
43488;BME280;29078;41.932;25.554;2023-12-07T02:47:34;99259.06;;;6.26;74.71
43488;BME280;29078;41.932;25.554;2023-12-07T02:50:00;99253.00;;;6.25;74.83
43488;BME280;29078;41.932;25.554;2023-12-07T02:52:25;99250.69;;;6.22;74.28
43488;BME280;29078;41.932;25.554;2023-12-07T02:54:50;99251.81;;;6.20;75.06
43488;BME280;29078;41.932;25.554;2023-12-07T02:57:16;99256.25;;;6.19;74.28
43488;BME280;29078;41.932;25.554;2023-12-07T02:59:41;99251.81;;;6.20;74.37
43488;BME280;29078;41.932;25.554;2023-12-07T03:02:06;99259.84;;;6.18;74.26
43488;BME280;29078;41.932;25.554;2023-12-07T03:04:32;99265.91;;;6.19;74.30
43488;BME280;29078;41.932;25.554;2023-12-07T03:06:57;99260.16;;;6.15;74.13
43488;BME280;29078;41.932;25.554;2023-12-07T03:09:23;99252.28;;;6.15;74.15
43488;BME280;29078;41.932;25.554;2023-12-07T03:11:48;99259.34;;;6.15;74.46
43488;BME280;29078;41.932;25.554;2023-12-07T03:14:13;99259.66;;;6.12;75.04
43488;BME280;29078;41.932;25.554;2023-12-07T03:16:39;99256.72;;;6.15;74.58
43488;BME280;29078;41.932;25.554;2023-12-07T03:19:04;99249.69;;;6.15;74.44
43488;BME280;29078;41.932;25.554;2023-12-07T03:21:29;99240.16;;;6.14;74.25
43488;BME280;29078;41.932;25.554;2023-12-07T03:23:55;99248.69;;;6.16;74.12
43488;BME280;29078;41.932;25.554;2023-12-07T03:26:20;99242.78;;;6.14;74.42
43488;BME280;29078;41.932;25.554;2023-12-07T03:28:46;99243.59;;;6.15;74.30
43488;BME280;29078;41.932;25.554;2023-12-07T03:31:11;99248.03;;;6.14;73.95
43488;BME280;29078;41.932;25.554;2023-12-07T03:33:36;99250.66;;;6.14;74.64
43488;BME280;29078;41.932;25.554;2023-12-07T03:36:03;99244.75;;;6.12;74.42
43488;BME280;29078;41.932;25.554;2023-12-07T03:38:28;99250.16;;;6.11;73.86
43488;BME280;29078;41.932;25.554;2023-12-07T03:40:54;99251.78;;;6.12;74.07
43488;BME280;29078;41.932;25.554;2023-12-07T03:43:19;99252.59;;;6.12;73.70
43488;BME280;29078;41.932;25.554;2023-12-07T03:45:45;99248.00;;;6.06;73.69
43488;BME280;29078;41.932;25.554;2023-12-07T03:48:10;99249.78;;;6.05;73.93
43488;BME280;29078;41.932;25.554;2023-12-07T03:50:36;99263.06;;;6.04;73.79
43488;BME280;29078;41.932;25.554;2023-12-07T03:53:01;99256.84;;;6.05;74.02
43488;BME280;29078;41.932;25.554;2023-12-07T03:55:26;99259.59;;;6.03;74.04
43488;BME280;29078;41.932;25.554;2023-12-07T03:57:51;99256.16;;;6.03;73.93
43488;BME280;29078;41.932;25.554;2023-12-07T04:00:17;99261.41;;;6.03;73.71
43488;BME280;29078;41.932;25.554;2023-12-07T04:02:42;99252.88;;;6.01;73.75
43488;BME280;29078;41.932;25.554;2023-12-07T04:05:07;99248.94;;;5.97;73.85
43488;BME280;29078;41.932;25.554;2023-12-07T04:07:33;99252.66;;;5.94;74.13
43488;BME280;29078;41.932;25.554;2023-12-07T04:09:59;99255.03;;;5.88;73.76
43488;BME280;29078;41.932;25.554;2023-12-07T04:12:24;99261.25;;;5.87;73.60
43488;BME280;29078;41.932;25.554;2023-12-07T04:14:50;99250.94;;;5.85;73.89
43488;BME280;29078;41.932;25.554;2023-12-07T04:17:16;99262.38;;;5.84;73.88
43488;BME280;29078;41.932;25.554;2023-12-07T04:19:42;99261.56;;;5.84;74.26
43488;BME280;29078;41.932;25.554;2023-12-07T04:22:07;99266.75;;;5.75;73.60
43488;BME280;29078;41.932;25.554;2023-12-07T04:24:32;99266.75;;;5.75;73.53
43488;BME280;29078;41.932;25.554;2023-12-07T04:26:58;99264.28;;;5.74;74.23
43488;BME280;29078;41.932;25.554;2023-12-07T04:29:23;99260.19;;;5.71;73.80
43488;BME280;29078;41.932;25.554;2023-12-07T04:31:48;99263.47;;;5.73;73.74
43488;BME280;29078;41.932;25.554;2023-12-07T04:34:14;99254.94;;;5.71;73.80
43488;BME280;29078;41.932;25.554;2023-12-07T04:36:39;99254.28;;;5.69;73.70
43488;BME280;29078;41.932;25.554;2023-12-07T04:39:04;99259.50;;;5.69;73.72
43488;BME280;29078;41.932;25.554;2023-12-07T04:41:29;99263.63;;;5.72;73.54
43488;BME280;29078;41.932;25.554;2023-12-07T04:43:55;99261.47;;;5.67;73.18
43488;BME280;29078;41.932;25.554;2023-12-07T04:46:20;99255.56;;;5.65;73.26
43488;BME280;29078;41.932;25.554;2023-12-07T04:48:45;99253.56;;;5.59;73.25
43488;BME280;29078;41.932;25.554;2023-12-07T04:51:11;99250.78;;;5.61;73.84
43488;BME280;29078;41.932;25.554;2023-12-07T04:53:36;99224.34;;;5.46;73.67
43488;BME280;29078;41.932;25.554;2023-12-07T04:56:01;99245.03;;;5.57;73.53
43488;BME280;29078;41.932;25.554;2023-12-07T04:58:27;99245.84;;;5.58;73.66
43488;BME280;29078;41.932;25.554;2023-12-07T05:00:52;99249.66;;;5.63;74.09
43488;BME280;29078;41.932;25.554;2023-12-07T05:03:18;99254.06;;;5.63;73.77
43488;BME280;29078;41.932;25.554;2023-12-07T05:05:43;99258.34;;;5.64;73.56
43488;BME280;29078;41.932;25.554;2023-12-07T05:08:08;99264.84;;;5.60;73.63
43488;BME280;29078;41.932;25.554;2023-12-07T05:10:33;99275.94;;;5.54;72.40
43488;BME280;29078;41.932;25.554;2023-12-07T05:12:59;99276.75;;;5.54;73.78
43488;BME280;29078;41.932;25.554;2023-12-07T05:15:24;99277.72;;;5.53;73.40
43488;BME280;29078;41.932;25.554;2023-12-07T05:17:50;99280.50;;;5.52;72.67
43488;BME280;29078;41.932;25.554;2023-12-07T05:20:15;99280.66;;;5.50;73.01
43488;BME280;29078;41.932;25.554;2023-12-07T05:22:40;99283.78;;;5.54;73.40
43488;BME280;29078;41.932;25.554;2023-12-07T05:25:06;99289.69;;;5.56;73.37
43488;BME280;29078;41.932;25.554;2023-12-07T05:27:31;99285.94;;;5.58;73.26
43488;BME280;29078;41.932;25.554;2023-12-07T05:29:57;99282.50;;;5.58;73.54
43488;BME280;29078;41.932;25.554;2023-12-07T05:32:22;99284.00;;;5.60;73.33
43488;BME280;29078;41.932;25.554;2023-12-07T05:34:47;99288.41;;;5.60;73.14
43488;BME280;29078;41.932;25.554;2023-12-07T05:37:13;99291.56;;;5.63;73.18
43488;BME280;29078;41.932;25.554;2023-12-07T05:39:38;99302.03;;;5.63;73.71
43488;BME280;29078;41.932;25.554;2023-12-07T05:42:03;99297.78;;;5.62;72.79
43488;BME280;29078;41.932;25.554;2023-12-07T05:44:29;99303.16;;;5.61;73.87
43488;BME280;29078;41.932;25.554;2023-12-07T05:46:55;99305.78;;;5.61;73.87
43488;BME280;29078;41.932;25.554;2023-12-07T05:49:20;99308.59;;;5.67;73.76
43488;BME280;29078;41.932;25.554;2023-12-07T05:51:47;99310.94;;;5.70;73.43
43488;BME280;29078;41.932;25.554;2023-12-07T05:54:14;99312.56;;;5.71;73.34
43488;BME280;29078;41.932;25.554;2023-12-07T05:56:39;99311.44;;;5.74;73.46
43488;BME280;29078;41.932;25.554;2023-12-07T05:59:05;99312.25;;;5.74;73.03
43488;BME280;29078;41.932;25.554;2023-12-07T06:01:31;99309.34;;;5.78;73.29
43488;BME280;29078;41.932;25.554;2023-12-07T06:03:57;99305.22;;;5.75;72.76
43488;BME280;29078;41.932;25.554;2023-12-07T06:06:22;99310.63;;;5.73;72.83
43488;BME280;29078;41.932;25.554;2023-12-07T06:08:48;99312.25;;;5.74;72.71
43488;BME280;29078;41.932;25.554;2023-12-07T06:11:14;99322.38;;;5.69;72.56
43488;BME280;29078;41.932;25.554;2023-12-07T06:13:40;99322.75;;;5.74;73.08
43488;BME280;29078;41.932;25.554;2023-12-07T06:16:05;99322.94;;;5.81;73.27
43488;BME280;29078;41.932;25.554;2023-12-07T06:18:31;99320.03;;;5.84;72.56
43488;BME280;29078;41.932;25.554;2023-12-07T06:20:56;99325.94;;;5.86;73.03
43488;BME280;29078;41.932;25.554;2023-12-07T06:23:21;99327.97;;;5.92;72.34
43488;BME280;29078;41.932;25.554;2023-12-07T06:25:47;99329.50;;;5.95;72.97
43488;BME280;29078;41.932;25.554;2023-12-07T06:28:12;99327.38;;;5.98;72.90
43488;BME280;29078;41.932;25.554;2023-12-07T06:30:37;99336.22;;;5.97;72.36
43488;BME280;29078;41.932;25.554;2023-12-07T06:33:03;99333.06;;;5.94;72.57
43488;BME280;29078;41.932;25.554;2023-12-07T06:35:28;99333.22;;;5.92;72.63
43488;BME280;29078;41.932;25.554;2023-12-07T06:37:54;99336.81;;;5.91;72.55
43488;BME280;29078;41.932;25.554;2023-12-07T06:40:19;99335.00;;;5.92;72.39
43488;BME280;29078;41.932;25.554;2023-12-07T06:42:45;99332.25;;;5.93;72.49
43488;BME280;29078;41.932;25.554;2023-12-07T06:45:10;99332.94;;;5.95;72.29
43488;BME280;29078;41.932;25.554;2023-12-07T06:47:39;99332.53;;;5.90;72.83
43488;BME280;29078;41.932;25.554;2023-12-07T06:50:05;99335.84;;;5.92;72.71
43488;BME280;29078;41.932;25.554;2023-12-07T06:52:33;99350.31;;;5.96;72.50
43488;BME280;29078;41.932;25.554;2023-12-07T06:54:58;99341.00;;;6.02;72.61
43488;BME280;29078;41.932;25.554;2023-12-07T06:57:24;99346.75;;;6.05;72.13
43488;BME280;29078;41.932;25.554;2023-12-07T06:59:49;99336.63;;;6.11;72.48
43488;BME280;29078;41.932;25.554;2023-12-07T07:02:16;99341.25;;;6.17;73.07
43488;BME280;29078;41.932;25.554;2023-12-07T07:04:41;99341.09;;;6.18;72.35
43488;BME280;29078;41.932;25.554;2023-12-07T07:07:06;99334.88;;;6.19;72.27
43488;BME280;29078;41.932;25.554;2023-12-07T07:09:31;99355.69;;;6.21;72.71
43488;BME280;29078;41.932;25.554;2023-12-07T07:11:57;99354.25;;;6.26;72.68
43488;BME280;29078;41.932;25.554;2023-12-07T07:14:22;99363.16;;;6.33;73.06
43488;BME280;29078;41.932;25.554;2023-12-07T07:16:47;99365.31;;;6.38;72.57
43488;BME280;29078;41.932;25.554;2023-12-07T07:19:13;99361.56;;;6.41;72.68
43488;BME280;29078;41.932;25.554;2023-12-07T07:21:38;99362.72;;;6.46;73.29
43488;BME280;29078;41.932;25.554;2023-12-07T07:24:04;99366.53;;;6.52;73.31
43488;BME280;29078;41.932;25.554;2023-12-07T07:26:29;99362.59;;;6.56;72.78
43488;BME280;29078;41.932;25.554;2023-12-07T07:28:54;99359.19;;;6.63;72.89
43488;BME280;29078;41.932;25.554;2023-12-07T07:31:20;99360.41;;;6.69;73.09
43488;BME280;29078;41.932;25.554;2023-12-07T07:33:45;99364.19;;;6.75;72.98
43488;BME280;29078;41.932;25.554;2023-12-07T07:36:14;99366.50;;;6.78;72.41
43488;BME280;29078;41.932;25.554;2023-12-07T07:38:40;99366.03;;;6.82;72.79
43488;BME280;29078;41.932;25.554;2023-12-07T07:41:05;99372.13;;;6.91;73.03
43488;BME280;29078;41.932;25.554;2023-12-07T07:43:31;99378.88;;;6.93;72.57
43488;BME280;29078;41.932;25.554;2023-12-07T07:45:56;99380.50;;;6.94;72.31
43488;BME280;29078;41.932;25.554;2023-12-07T07:48:21;99372.47;;;6.96;72.39
43488;BME280;29078;41.932;25.554;2023-12-07T07:50:47;99375.44;;;7.01;72.20
43488;BME280;29078;41.932;25.554;2023-12-07T07:53:12;99373.66;;;7.01;72.68
43488;BME280;29078;41.932;25.554;2023-12-07T07:55:38;99383.66;;;7.06;72.67
43488;BME280;29078;41.932;25.554;2023-12-07T07:58:03;99388.13;;;7.14;72.61
43488;BME280;29078;41.932;25.554;2023-12-07T08:00:28;99382.53;;;7.17;72.53
43488;BME280;29078;41.932;25.554;2023-12-07T08:02:54;99390.59;;;7.23;72.70
43488;BME280;29078;41.932;25.554;2023-12-07T08:05:19;99379.47;;;7.29;72.67
43488;BME280;29078;41.932;25.554;2023-12-07T08:07:44;99381.59;;;7.34;72.78
43488;BME280;29078;41.932;25.554;2023-12-07T08:10:09;99389.66;;;7.41;72.65
43488;BME280;29078;41.932;25.554;2023-12-07T08:12:35;99378.53;;;7.47;72.97
43488;BME280;29078;41.932;25.554;2023-12-07T08:15:01;99389.72;;;7.57;73.29
43488;BME280;29078;41.932;25.554;2023-12-07T08:17:26;99386.94;;;7.67;72.56
43488;BME280;29078;41.932;25.554;2023-12-07T08:19:52;99392.03;;;7.76;72.31
43488;BME280;29078;41.932;25.554;2023-12-07T08:22:17;99397.28;;;7.84;72.60
43488;BME280;29078;41.932;25.554;2023-12-07T08:24:43;99399.91;;;7.92;72.11
43488;BME280;29078;41.932;25.554;2023-12-07T08:27:08;99403.34;;;8.01;72.44
43488;BME280;29078;41.932;25.554;2023-12-07T08:29:34;99405.50;;;8.06;72.23
43488;BME280;29078;41.932;25.554;2023-12-07T08:31:59;99405.66;;;8.12;71.82
43488;BME280;29078;41.932;25.554;2023-12-07T08:34:24;99403.22;;;8.19;71.53
43488;BME280;29078;41.932;25.554;2023-12-07T08:36:50;99408.97;;;8.22;71.47
43488;BME280;29078;41.932;25.554;2023-12-07T08:39:15;99406.81;;;8.26;71.74
43488;BME280;29078;41.932;25.554;2023-12-07T08:41:41;99406.47;;;8.29;71.46
43488;BME280;29078;41.932;25.554;2023-12-07T08:44:06;99400.91;;;8.32;71.36
43488;BME280;29078;41.932;25.554;2023-12-07T08:46:31;99401.56;;;8.34;71.27
43488;BME280;29078;41.932;25.554;2023-12-07T08:48:57;99404.53;;;8.39;71.29
43488;BME280;29078;41.932;25.554;2023-12-07T08:51:22;99405.00;;;8.43;71.48
43488;BME280;29078;41.932;25.554;2023-12-07T08:53:48;99396.94;;;8.44;71.50
43488;BME280;29078;41.932;25.554;2023-12-07T08:56:13;99391.19;;;8.49;71.46
43488;BME280;29078;41.932;25.554;2023-12-07T08:58:41;99394.13;;;8.54;71.23
43488;BME280;29078;41.932;25.554;2023-12-07T09:01:07;99392.81;;;8.58;70.98
43488;BME280;29078;41.932;25.554;2023-12-07T09:03:32;99387.84;;;8.63;70.94
43488;BME280;29078;41.932;25.554;2023-12-07T09:05:58;99381.44;;;8.66;70.64
43488;BME280;29078;41.932;25.554;2023-12-07T09:08:24;99384.38;;;8.71;70.78
43488;BME280;29078;41.932;25.554;2023-12-07T09:10:49;99388.47;;;8.73;70.58
43488;BME280;29078;41.932;25.554;2023-12-07T09:13:16;99387.16;;;8.77;70.72
43488;BME280;29078;41.932;25.554;2023-12-07T09:15:42;99382.03;;;8.84;70.49
43488;BME280;29078;41.932;25.554;2023-12-07T09:18:07;99387.94;;;8.86;70.69
43488;BME280;29078;41.932;25.554;2023-12-07T09:20:32;99403.72;;;8.86;70.69
43488;BME280;29078;41.932;25.554;2023-12-07T09:22:58;99389.25;;;8.90;70.84
43488;BME280;29078;41.932;25.554;2023-12-07T09:25:23;99390.41;;;8.96;70.46
43488;BME280;29078;41.932;25.554;2023-12-07T09:27:52;99381.00;;;9.01;70.75
43488;BME280;29078;41.932;25.554;2023-12-07T09:30:18;99376.03;;;9.06;70.74
43488;BME280;29078;41.932;25.554;2023-12-07T09:32:43;99383.06;;;9.14;70.72
43488;BME280;29078;41.932;25.554;2023-12-07T09:35:09;99378.56;;;9.22;70.10
43488;BME280;29078;41.932;25.554;2023-12-07T09:37:44;99378.34;;;9.32;70.09
43488;BME280;29078;41.932;25.554;2023-12-07T09:40:13;99365.13;;;9.40;69.90
43488;BME280;29078;41.932;25.554;2023-12-07T09:42:39;99359.81;;;9.48;69.83
43488;BME280;29078;41.932;25.554;2023-12-07T09:45:06;99360.91;;;9.54;69.46
43488;BME280;29078;41.932;25.554;2023-12-07T09:47:32;99357.41;;;9.62;69.57
43488;BME280;29078;41.932;25.554;2023-12-07T09:49:59;99355.22;;;9.65;69.45
43488;BME280;29078;41.932;25.554;2023-12-07T09:52:24;99349.44;;;9.70;69.30
43488;BME280;29078;41.932;25.554;2023-12-07T09:54:50;99347.75;;;9.77;69.43
43488;BME280;29078;41.932;25.554;2023-12-07T09:57:16;99345.03;;;9.85;69.08
43488;BME280;29078;41.932;25.554;2023-12-07T09:59:42;99346.59;;;9.94;69.00
43488;BME280;29078;41.932;25.554;2023-12-07T10:02:07;99347.25;;;9.96;69.35
43488;BME280;29078;41.932;25.554;2023-12-07T10:04:33;99348.06;;;9.97;68.63
43488;BME280;29078;41.932;25.554;2023-12-07T10:06:58;99338.50;;;9.96;68.63
43488;BME280;29078;41.932;25.554;2023-12-07T10:09:23;99334.34;;;10.01;68.35
43488;BME280;29078;41.932;25.554;2023-12-07T10:11:49;99340.09;;;10.05;67.86
43488;BME280;29078;41.932;25.554;2023-12-07T10:14:15;99329.16;;;10.08;68.09
43488;BME280;29078;41.932;25.554;2023-12-07T10:16:53;99334.91;;;10.11;67.86
43488;BME280;29078;41.932;25.554;2023-12-07T10:19:20;99331.72;;;10.16;68.21
43488;BME280;29078;41.932;25.554;2023-12-07T10:21:55;99331.22;;;10.21;68.17
43488;BME280;29078;41.932;25.554;2023-12-07T10:24:22;99335.13;;;10.25;67.92
43488;BME280;29078;41.932;25.554;2023-12-07T10:26:48;99336.22;;;10.30;68.28
43488;BME280;29078;41.932;25.554;2023-12-07T10:29:14;99330.75;;;10.32;67.58
43488;BME280;29078;41.932;25.554;2023-12-07T10:31:39;99329.31;;;10.29;67.53
43488;BME280;29078;41.932;25.554;2023-12-07T10:34:05;99327.41;;;10.23;67.19
43488;BME280;29078;41.932;25.554;2023-12-07T10:36:30;99322.16;;;10.15;67.49
43488;BME280;29078;41.932;25.554;2023-12-07T10:38:56;99326.44;;;10.16;67.44
43488;BME280;29078;41.932;25.554;2023-12-07T10:41:22;99323.63;;;10.17;67.40
43488;BME280;29078;41.932;25.554;2023-12-07T10:43:49;99321.00;;;10.17;67.34
43488;BME280;29078;41.932;25.554;2023-12-07T10:46:16;99313.25;;;10.16;68.24
43488;BME280;29078;41.932;25.554;2023-12-07T10:48:44;99311.56;;;10.23;68.01
43488;BME280;29078;41.932;25.554;2023-12-07T10:51:13;99309.84;;;10.30;68.13
43488;BME280;29078;41.932;25.554;2023-12-07T10:53:41;99316.22;;;10.36;67.19
43488;BME280;29078;41.932;25.554;2023-12-07T10:58:55;99318.56;;;10.31;66.57
43488;BME280;29078;41.932;25.554;2023-12-07T11:01:22;99321.22;;;10.31;67.57
43488;BME280;29078;41.932;25.554;2023-12-07T11:03:51;99315.75;;;10.32;67.37
43488;BME280;29078;41.932;25.554;2023-12-07T11:06:18;99315.75;;;10.32;67.41
43488;BME280;29078;41.932;25.554;2023-12-07T11:08:48;99309.66;;;10.32;67.89
43488;BME280;29078;41.932;25.554;2023-12-07T11:11:18;99303.75;;;10.30;67.03
43488;BME280;29078;41.932;25.554;2023-12-07T11:14:02;99299.66;;;10.27;66.97
43488;BME280;29078;41.932;25.554;2023-12-07T11:16:31;99306.75;;;10.27;67.46
43488;BME280;29078;41.932;25.554;2023-12-07T11:18:57;99309.56;;;10.25;67.85
43488;BME280;29078;41.932;25.554;2023-12-07T11:21:23;99308.75;;;10.25;67.91
43488;BME280;29078;41.932;25.554;2023-12-07T11:23:48;99310.03;;;10.29;67.95
43488;BME280;29078;41.932;25.554;2023-12-07T11:26:13;99299.75;;;10.34;67.57
43488;BME280;29078;41.932;25.554;2023-12-07T11:28:39;99300.00;;;10.39;67.60
43488;BME280;29078;41.932;25.554;2023-12-07T11:31:08;99300.31;;;10.44;67.34
43488;BME280;29078;41.932;25.554;2023-12-07T11:33:33;99296.94;;;10.50;67.22
43488;BME280;29078;41.932;25.554;2023-12-07T11:38:27;99302.59;;;10.47;67.43
43488;BME280;29078;41.932;25.554;2023-12-07T11:40:52;99291.56;;;10.43;68.00
43488;BME280;29078;41.932;25.554;2023-12-07T11:46:05;99291.03;;;10.48;67.41
43488;BME280;29078;41.932;25.554;2023-12-07T11:48:31;99292.66;;;10.49;66.72
43488;BME280;29078;41.932;25.554;2023-12-07T11:51:00;99291.47;;;10.52;67.45
43488;BME280;29078;41.932;25.554;2023-12-07T11:53:26;99290.03;;;10.49;67.29
43488;BME280;29078;41.932;25.554;2023-12-07T11:55:53;99297.13;;;10.48;67.27
43488;BME280;29078;41.932;25.554;2023-12-07T11:58:18;99287.38;;;10.49;68.19
43488;BME280;29078;41.932;25.554;2023-12-07T12:00:44;99290.66;;;10.51;67.45
43488;BME280;29078;41.932;25.554;2023-12-07T12:03:15;99294.28;;;10.50;67.54
43488;BME280;29078;41.932;25.554;2023-12-07T12:05:41;99293.47;;;10.49;67.93
43488;BME280;29078;41.932;25.554;2023-12-07T12:08:07;99290.84;;;10.49;67.56
43488;BME280;29078;41.932;25.554;2023-12-07T12:10:32;99299.84;;;10.55;67.42
43488;BME280;29078;41.932;25.554;2023-12-07T12:13:00;99291.75;;;10.57;67.76
43488;BME280;29078;41.932;25.554;2023-12-07T12:15:26;99278.28;;;10.52;66.84
43488;BME280;29078;41.932;25.554;2023-12-07T12:17:57;99284.63;;;10.57;67.00
43488;BME280;29078;41.932;25.554;2023-12-07T12:20:23;99284.28;;;10.60;67.80
43488;BME280;29078;41.932;25.554;2023-12-07T12:22:49;99274.53;;;10.61;67.59
43488;BME280;29078;41.932;25.554;2023-12-07T12:25:14;99276.81;;;10.64;67.88
43488;BME280;29078;41.932;25.554;2023-12-07T12:27:40;99281.25;;;10.63;67.99
43488;BME280;29078;41.932;25.554;2023-12-07T12:30:06;99278.44;;;10.65;68.14
43488;BME280;29078;41.932;25.554;2023-12-07T12:32:44;99277.34;;;10.59;67.57
43488;BME280;29078;41.932;25.554;2023-12-07T12:35:09;99279.53;;;10.56;67.18
43488;BME280;29078;41.932;25.554;2023-12-07T12:37:38;99272.19;;;10.51;68.10
43488;BME280;29078;41.932;25.554;2023-12-07T12:40:06;99277.47;;;10.51;67.25
43488;BME280;29078;41.932;25.554;2023-12-07T12:42:32;99275.63;;;10.52;67.65
43488;BME280;29078;41.932;25.554;2023-12-07T12:44:57;99276.81;;;10.49;68.15
43488;BME280;29078;41.932;25.554;2023-12-07T12:47:23;99289.19;;;10.48;68.04
43488;BME280;29078;41.932;25.554;2023-12-07T12:49:48;99286.38;;;10.50;67.70
43488;BME280;29078;41.932;25.554;2023-12-07T12:52:16;99284.38;;;10.52;67.68
43488;BME280;29078;41.932;25.554;2023-12-07T12:54:45;99282.19;;;10.56;68.51
43488;BME280;29078;41.932;25.554;2023-12-07T12:57:10;99286.47;;;10.57;68.31
43488;BME280;29078;41.932;25.554;2023-12-07T12:59:36;99294.00;;;10.60;68.09